sensor_id;sensor_type;location;lat;lon;timestamp;noise_LAeq;noise_LA_min;noise_LA_max;noise_LA01;noise_LA95
58197;Laerm;43999;51.660;5.616;2022-11-20T00:01:32;54.46;40.89;68.36;;
58197;Laerm;43999;51.660;5.616;2022-11-20T00:04:00;58.53;42.16;73.24;;
58197;Laerm;43999;51.660;5.616;2022-11-20T00:06:30;56.10;42.47;71.45;;
58197;Laerm;43999;51.660;5.616;2022-11-20T00:08:59;53.97;42.59;64.10;;
58197;Laerm;43999;51.660;5.616;2022-11-20T00:11:30;54.06;41.68;68.64;;
58197;Laerm;43999;51.660;5.616;2022-11-20T00:14:01;56.15;41.53;71.74;;
58197;Laerm;43999;51.660;5.616;2022-11-20T00:16:32;58.31;44.15;69.81;;
58197;Laerm;43999;51.660;5.616;2022-11-20T00:18:59;56.39;39.81;71.92;;
58197;Laerm;43999;51.660;5.616;2022-11-20T00:21:28;49.45;40.89;64.10;;
58197;Laerm;43999;51.660;5.616;2022-11-20T00:23:57;57.70;39.58;70.28;;
58197;Laerm;43999;51.660;5.616;2022-11-20T00:26:27;52.42;40.89;67.21;;
58197;Laerm;43999;51.660;5.616;2022-11-20T00:28:59;60.93;42.47;82.02;;
58197;Laerm;43999;51.660;5.616;2022-11-20T00:31:28;54.22;41.14;70.10;;
58197;Laerm;43999;51.660;5.616;2022-11-20T00:33:57;52.60;41.82;65.32;;
58197;Laerm;43999;51.660;5.616;2022-11-20T00:36:27;53.64;40.71;66.52;;
58197;Laerm;43999;51.660;5.616;2022-11-20T00:38:59;56.32;40.03;71.68;;
58197;Laerm;43999;51.660;5.616;2022-11-20T00:41:28;57.09;41.61;69.60;;
58197;Laerm;43999;51.660;5.616;2022-11-20T00:43:57;46.07;40.13;56.64;;
58197;Laerm;43999;51.660;5.616;2022-11-20T00:46:27;58.87;41.38;73.43;;
58197;Laerm;43999;51.660;5.616;2022-11-20T00:48:55;55.14;41.68;67.57;;
58197;Laerm;43999;51.660;5.616;2022-11-20T00:51:26;56.14;42.09;69.34;;
58197;Laerm;43999;51.660;5.616;2022-11-20T00:53:58;49.12;40.53;66.53;;
58197;Laerm;43999;51.660;5.616;2022-11-20T00:56:27;54.29;41.46;65.60;;
58197;Laerm;43999;51.660;5.616;2022-11-20T00:58:55;56.08;41.96;71.24;;
58197;Laerm;43999;51.660;5.616;2022-11-20T01:01:25;50.45;40.80;65.48;;
58197;Laerm;43999;51.660;5.616;2022-11-20T01:03:58;56.67;40.43;69.56;;
58197;Laerm;43999;51.660;5.616;2022-11-20T01:06:30;62.35;39.81;81.84;;
58197;Laerm;43999;51.660;5.616;2022-11-20T01:09:02;56.04;41.53;70.78;;
58197;Laerm;43999;51.660;5.616;2022-11-20T01:11:34;48.77;39.34;68.21;;
58197;Laerm;43999;51.660;5.616;2022-11-20T01:14:06;54.31;40.03;68.10;;
58197;Laerm;43999;51.660;5.616;2022-11-20T01:16:38;54.73;40.33;70.77;;
58197;Laerm;43999;51.660;5.616;2022-11-20T01:19:13;55.06;40.62;68.41;;
58197;Laerm;43999;51.660;5.616;2022-11-20T01:21:48;53.77;40.98;64.95;;
58197;Laerm;43999;51.660;5.616;2022-11-20T01:24:19;58.00;42.09;71.77;;
58197;Laerm;43999;51.660;5.616;2022-11-20T01:26:50;46.76;39.68;63.80;;
58197;Laerm;43999;51.660;5.616;2022-11-20T01:29:23;53.54;40.98;69.07;;
58197;Laerm;43999;51.660;5.616;2022-11-20T01:31:51;43.80;40.03;52.84;;
58197;Laerm;43999;51.660;5.616;2022-11-20T01:34:21;50.59;38.21;64.91;;
58197;Laerm;43999;51.660;5.616;2022-11-20T01:36:51;53.29;39.70;68.17;;
58197;Laerm;43999;51.660;5.616;2022-11-20T01:39:23;51.41;40.33;66.71;;
58197;Laerm;43999;51.660;5.616;2022-11-20T01:41:54;51.96;39.81;70.21;;
58197;Laerm;43999;51.660;5.616;2022-11-20T01:44:52;56.44;41.03;70.89;;
58197;Laerm;43999;51.660;5.616;2022-11-20T01:47:29;51.30;39.92;66.98;;
58197;Laerm;43999;51.660;5.616;2022-11-20T01:50:11;45.14;40.03;54.18;;
58197;Laerm;43999;51.660;5.616;2022-11-20T01:52:54;53.43;40.79;68.37;;
58197;Laerm;43999;51.660;5.616;2022-11-20T01:55:28;54.33;40.13;67.41;;
58197;Laerm;43999;51.660;5.616;2022-11-20T01:57:59;45.01;39.81;62.32;;
58197;Laerm;43999;51.660;5.616;2022-11-20T02:00:28;51.95;40.33;67.36;;
58197;Laerm;43999;51.660;5.616;2022-11-20T02:03:01;43.14;38.95;53.11;;
58197;Laerm;43999;51.660;5.616;2022-11-20T02:08:24;54.14;39.70;67.75;;
58197;Laerm;43999;51.660;5.616;2022-11-20T02:10:51;46.75;39.58;59.36;;
58197;Laerm;43999;51.660;5.616;2022-11-20T02:13:19;56.71;40.33;68.56;;
58197;Laerm;43999;51.660;5.616;2022-11-20T02:16:33;53.06;40.23;65.85;;
58197;Laerm;43999;51.660;5.616;2022-11-20T02:19:02;44.60;39.21;58.40;;
58197;Laerm;43999;51.660;5.616;2022-11-20T02:21:55;51.71;39.92;65.12;;
58197;Laerm;43999;51.660;5.616;2022-11-20T02:24:25;44.77;39.70;60.22;;
58197;Laerm;43999;51.660;5.616;2022-11-20T02:27:12;53.29;39.70;68.22;;
58197;Laerm;43999;51.660;5.616;2022-11-20T02:34:50;52.88;39.70;71.99;;
58197;Laerm;43999;51.660;5.616;2022-11-20T02:37:19;52.92;40.33;68.85;;
58197;Laerm;43999;51.660;5.616;2022-11-20T02:39:51;69.06;40.80;97.98;;
58197;Laerm;43999;51.660;5.616;2022-11-20T02:42:19;53.29;39.92;68.81;;
58197;Laerm;43999;51.660;5.616;2022-11-20T02:44:47;43.76;39.81;56.19;;
58197;Laerm;43999;51.660;5.616;2022-11-20T02:47:14;52.30;39.81;69.56;;
58197;Laerm;43999;51.660;5.616;2022-11-20T02:49:41;57.50;40.23;71.59;;
58197;Laerm;43999;51.660;5.616;2022-11-20T02:52:09;51.07;39.58;66.79;;
58197;Laerm;43999;51.660;5.616;2022-11-20T02:54:36;43.04;38.67;51.67;;
58197;Laerm;43999;51.660;5.616;2022-11-20T02:57:04;42.02;39.08;45.45;;
58197;Laerm;43999;51.660;5.616;2022-11-20T02:59:31;50.86;39.92;65.53;;
58197;Laerm;43999;51.660;5.616;2022-11-20T03:01:59;45.91;40.03;70.00;;
58197;Laerm;43999;51.660;5.616;2022-11-20T03:04:26;44.20;39.92;61.83;;
58197;Laerm;43999;51.660;5.616;2022-11-20T03:06:54;42.35;39.92;45.99;;
58197;Laerm;43999;51.660;5.616;2022-11-20T03:09:22;54.26;39.34;72.02;;
58197;Laerm;43999;51.660;5.616;2022-11-20T03:11:50;53.68;40.23;66.51;;
58197;Laerm;43999;51.660;5.616;2022-11-20T03:14:17;52.99;39.21;67.46;;
58197;Laerm;43999;51.660;5.616;2022-11-20T03:16:48;54.90;40.98;72.04;;
58197;Laerm;43999;51.660;5.616;2022-11-20T03:19:15;50.83;40.03;66.17;;
58197;Laerm;43999;51.660;5.616;2022-11-20T03:21:43;54.98;39.58;69.45;;
58197;Laerm;43999;51.660;5.616;2022-11-20T03:24:10;51.08;39.34;62.78;;
58197;Laerm;43999;51.660;5.616;2022-11-20T03:26:39;49.35;39.81;66.51;;
58197;Laerm;43999;51.660;5.616;2022-11-20T03:29:06;42.40;39.46;51.33;;
58197;Laerm;43999;51.660;5.616;2022-11-20T03:31:38;51.98;39.34;65.16;;
58197;Laerm;43999;51.660;5.616;2022-11-20T03:34:11;56.97;40.80;76.47;;
58197;Laerm;43999;51.660;5.616;2022-11-20T03:36:41;49.78;39.70;70.51;;
58197;Laerm;43999;51.660;5.616;2022-11-20T03:39:09;49.15;39.34;67.30;;
58197;Laerm;43999;51.660;5.616;2022-11-20T03:41:40;44.57;39.08;58.13;;
58197;Laerm;43999;51.660;5.616;2022-11-20T03:44:11;51.65;38.95;68.23;;
58197;Laerm;43999;51.660;5.616;2022-11-20T03:46:39;47.34;39.34;65.03;;
58197;Laerm;43999;51.660;5.616;2022-11-20T03:49:07;42.96;39.21;53.58;;
58197;Laerm;43999;51.660;5.616;2022-11-20T03:51:36;44.61;39.46;54.55;;
58197;Laerm;43999;51.660;5.616;2022-11-20T03:54:07;52.37;39.46;70.20;;
58197;Laerm;43999;51.660;5.616;2022-11-20T03:56:37;44.79;39.11;55.96;;
58197;Laerm;43999;51.660;5.616;2022-11-20T03:59:06;53.23;39.21;68.39;;
58197;Laerm;43999;51.660;5.616;2022-11-20T04:01:36;42.35;39.21;48.91;;
58197;Laerm;43999;51.660;5.616;2022-11-20T04:04:11;41.79;38.67;44.54;;
58197;Laerm;43999;51.660;5.616;2022-11-20T04:06:39;41.90;39.08;44.47;;
58197;Laerm;43999;51.660;5.616;2022-11-20T04:09:07;41.70;38.95;43.44;;
58197;Laerm;43999;51.660;5.616;2022-11-20T04:11:39;47.99;39.21;61.01;;
58197;Laerm;43999;51.660;5.616;2022-11-20T04:14:14;41.73;38.81;43.39;;
58197;Laerm;43999;51.660;5.616;2022-11-20T04:16:43;43.72;39.21;56.63;;
58197;Laerm;43999;51.660;5.616;2022-11-20T04:19:14;49.84;39.70;65.97;;
58197;Laerm;43999;51.660;5.616;2022-11-20T04:21:44;42.94;39.46;57.97;;
58197;Laerm;43999;51.660;5.616;2022-11-20T04:24:11;42.46;38.81;49.98;;
58197;Laerm;43999;51.660;5.616;2022-11-20T04:26:40;46.16;38.37;63.36;;
58197;Laerm;43999;51.660;5.616;2022-11-20T04:29:11;57.13;39.34;77.85;;
58197;Laerm;43999;51.660;5.616;2022-11-20T04:31:39;53.19;39.58;68.39;;
58197;Laerm;43999;51.660;5.616;2022-11-20T04:34:07;51.94;38.67;67.69;;
58197;Laerm;43999;51.660;5.616;2022-11-20T04:36:35;45.26;38.95;56.15;;
58197;Laerm;43999;51.660;5.616;2022-11-20T04:39:05;42.56;39.46;47.22;;
58197;Laerm;43999;51.660;5.616;2022-11-20T04:41:36;47.48;39.58;62.09;;
58197;Laerm;43999;51.660;5.616;2022-11-20T04:44:05;42.19;38.37;50.18;;
58197;Laerm;43999;51.660;5.616;2022-11-20T04:46:43;42.77;38.81;53.54;;
58197;Laerm;43999;51.660;5.616;2022-11-20T04:49:11;51.47;39.46;68.09;;
58197;Laerm;43999;51.660;5.616;2022-11-20T04:51:39;42.08;39.34;53.94;;
58197;Laerm;43999;51.660;5.616;2022-11-20T04:54:07;43.03;39.46;53.29;;
58197;Laerm;43999;51.660;5.616;2022-11-20T04:56:36;52.03;40.03;68.31;;
58197;Laerm;43999;51.660;5.616;2022-11-20T04:59:04;47.27;39.70;59.72;;
58197;Laerm;43999;51.660;5.616;2022-11-20T05:01:32;42.76;38.81;59.41;;
58197;Laerm;43999;51.660;5.616;2022-11-20T05:04:00;54.25;39.70;70.49;;
58197;Laerm;43999;51.660;5.616;2022-11-20T05:06:27;45.15;39.57;63.95;;
58197;Laerm;43999;51.660;5.616;2022-11-20T05:08:55;49.51;39.08;65.31;;
58197;Laerm;43999;51.660;5.616;2022-11-20T05:11:23;53.43;39.81;72.55;;
58197;Laerm;43999;51.660;5.616;2022-11-20T05:13:51;49.88;40.03;67.59;;
58197;Laerm;43999;51.660;5.616;2022-11-20T05:16:23;45.51;39.58;64.95;;
58197;Laerm;43999;51.660;5.616;2022-11-20T05:18:53;56.80;39.58;71.33;;
58197;Laerm;43999;51.660;5.616;2022-11-20T05:21:22;44.64;39.58;57.93;;
58197;Laerm;43999;51.660;5.616;2022-11-20T05:23:50;44.36;39.34;56.57;;
58197;Laerm;43999;51.660;5.616;2022-11-20T05:26:21;52.52;39.58;69.52;;
58197;Laerm;43999;51.660;5.616;2022-11-20T05:28:50;53.51;39.46;69.38;;
58197;Laerm;43999;51.660;5.616;2022-11-20T05:31:21;44.46;40.03;64.20;;
58197;Laerm;43999;51.660;5.616;2022-11-20T05:33:55;51.64;39.70;68.07;;
58197;Laerm;43999;51.660;5.616;2022-11-20T05:36:23;48.95;40.23;67.73;;
58197;Laerm;43999;51.660;5.616;2022-11-20T05:38:51;44.53;39.81;59.83;;
58197;Laerm;43999;51.660;5.616;2022-11-20T05:41:26;51.99;39.58;66.11;;
58197;Laerm;43999;51.660;5.616;2022-11-20T05:43:55;49.12;39.92;63.19;;
58197;Laerm;43999;51.660;5.616;2022-11-20T05:46:23;52.96;40.03;71.00;;
58197;Laerm;43999;51.660;5.616;2022-11-20T05:48:56;54.21;39.46;69.20;;
58197;Laerm;43999;51.660;5.616;2022-11-20T05:51:25;57.07;42.29;68.55;;
58197;Laerm;43999;51.660;5.616;2022-11-20T05:53:56;48.69;40.62;65.37;;
58197;Laerm;43999;51.660;5.616;2022-11-20T05:56:24;55.88;40.43;70.14;;
58197;Laerm;43999;51.660;5.616;2022-11-20T05:58:51;42.64;40.03;51.98;;
58197;Laerm;43999;51.660;5.616;2022-11-20T06:01:25;48.66;40.03;62.97;;
58197;Laerm;43999;51.660;5.616;2022-11-20T06:03:54;42.97;39.58;50.16;;
58197;Laerm;43999;51.660;5.616;2022-11-20T06:06:22;53.21;39.81;76.34;;
58197;Laerm;43999;51.660;5.616;2022-11-20T06:08:49;57.21;39.58;76.18;;
58197;Laerm;43999;51.660;5.616;2022-11-20T06:11:18;55.07;40.23;72.95;;
58197;Laerm;43999;51.660;5.616;2022-11-20T06:13:46;52.09;40.23;67.79;;
58197;Laerm;43999;51.660;5.616;2022-11-20T06:16:18;54.88;40.13;74.74;;
58197;Laerm;43999;51.660;5.616;2022-11-20T06:18:47;51.58;39.92;68.06;;
58197;Laerm;43999;51.660;5.616;2022-11-20T06:21:18;51.20;40.23;67.06;;
58197;Laerm;43999;51.660;5.616;2022-11-20T06:23:48;54.49;40.89;68.77;;
58197;Laerm;43999;51.660;5.616;2022-11-20T06:26:22;54.51;41.30;68.32;;
58197;Laerm;43999;51.660;5.616;2022-11-20T06:28:51;57.81;40.33;82.11;;
58197;Laerm;43999;51.660;5.616;2022-11-20T06:31:22;56.04;40.71;73.79;;
58197;Laerm;43999;51.660;5.616;2022-11-20T06:33:51;51.50;40.43;70.72;;
58197;Laerm;43999;51.660;5.616;2022-11-20T06:36:22;57.87;41.46;72.03;;
58197;Laerm;43999;51.660;5.616;2022-11-20T06:38:50;43.83;41.75;47.52;;
58197;Laerm;43999;51.660;5.616;2022-11-20T06:41:20;51.38;42.76;67.68;;
58197;Laerm;43999;51.660;5.616;2022-11-20T06:43:49;52.52;43.04;65.37;;
58197;Laerm;43999;51.660;5.616;2022-11-20T06:46:18;58.42;45.69;78.18;;
58197;Laerm;43999;51.660;5.616;2022-11-20T06:48:48;51.94;45.01;63.83;;
58197;Laerm;43999;51.660;5.616;2022-11-20T06:51:16;48.28;42.93;60.02;;
58197;Laerm;43999;51.660;5.616;2022-11-20T06:53:44;53.76;43.29;65.34;;
58197;Laerm;43999;51.660;5.616;2022-11-20T06:56:12;49.84;42.82;62.11;;
58197;Laerm;43999;51.660;5.616;2022-11-20T06:58:40;50.32;43.39;64.51;;
58197;Laerm;43999;51.660;5.616;2022-11-20T07:01:12;53.48;41.06;66.42;;
58197;Laerm;43999;51.660;5.616;2022-11-20T07:03:41;50.90;41.96;65.63;;
58197;Laerm;43999;51.660;5.616;2022-11-20T07:06:09;44.26;40.80;56.77;;
58197;Laerm;43999;51.660;5.616;2022-11-20T07:08:40;49.99;40.53;63.89;;
58197;Laerm;43999;51.660;5.616;2022-11-20T07:11:11;53.68;40.33;71.00;;
58197;Laerm;43999;51.660;5.616;2022-11-20T07:13:39;53.32;40.53;73.73;;
58197;Laerm;43999;51.660;5.616;2022-11-20T07:16:08;44.27;39.70;55.91;;
58197;Laerm;43999;51.660;5.616;2022-11-20T07:18:36;54.33;41.06;70.26;;
58197;Laerm;43999;51.660;5.616;2022-11-20T07:21:10;51.35;40.62;67.54;;
58197;Laerm;43999;51.660;5.616;2022-11-20T07:23:38;51.60;40.89;64.93;;
58197;Laerm;43999;51.660;5.616;2022-11-20T07:26:07;54.09;46.93;65.74;;
58197;Laerm;43999;51.660;5.616;2022-11-20T07:28:35;57.92;51.11;69.02;;
58197;Laerm;43999;51.660;5.616;2022-11-20T07:31:04;56.38;47.12;66.26;;
58197;Laerm;43999;51.660;5.616;2022-11-20T07:33:32;57.08;46.52;69.55;;
58197;Laerm;43999;51.660;5.616;2022-11-20T07:36:01;61.74;49.49;76.66;;
58197;Laerm;43999;51.660;5.616;2022-11-20T07:38:29;59.95;43.09;67.76;;
58197;Laerm;43999;51.660;5.616;2022-11-20T07:40:57;63.90;42.71;83.17;;
58197;Laerm;43999;51.660;5.616;2022-11-20T07:43:25;47.18;43.04;65.21;;
58197;Laerm;43999;51.660;5.616;2022-11-20T07:45:56;55.82;42.93;70.20;;
58197;Laerm;43999;51.660;5.616;2022-11-20T07:48:25;60.94;44.03;73.97;;
58197;Laerm;43999;51.660;5.616;2022-11-20T07:50:56;61.06;46.91;71.80;;
58197;Laerm;43999;51.660;5.616;2022-11-20T07:53:24;59.98;50.64;77.69;;
58197;Laerm;43999;51.660;5.616;2022-11-20T07:55:52;62.38;52.44;71.69;;
58197;Laerm;43999;51.660;5.616;2022-11-20T07:58:21;60.10;49.56;71.25;;
58197;Laerm;43999;51.660;5.616;2022-11-20T08:00:49;60.38;50.76;69.25;;
58197;Laerm;43999;51.660;5.616;2022-11-20T08:03:16;62.06;51.81;76.21;;
58197;Laerm;43999;51.660;5.616;2022-11-20T08:05:51;61.85;52.54;74.57;;
58197;Laerm;43999;51.660;5.616;2022-11-20T08:08:19;64.44;52.88;77.07;;
58197;Laerm;43999;51.660;5.616;2022-11-20T08:10:47;61.56;49.78;74.27;;
58197;Laerm;43999;51.660;5.616;2022-11-20T08:13:14;57.47;47.77;67.74;;
58197;Laerm;43999;51.660;5.616;2022-11-20T08:16:00;64.55;48.87;82.59;;
58197;Laerm;43999;51.660;5.616;2022-11-20T08:18:28;61.67;49.58;74.94;;
58197;Laerm;43999;51.660;5.616;2022-11-20T08:21:03;61.24;51.54;72.58;;
58197;Laerm;43999;51.660;5.616;2022-11-20T08:23:32;59.59;47.06;70.24;;
58197;Laerm;43999;51.660;5.616;2022-11-20T08:25:59;61.30;48.67;72.26;;
58197;Laerm;43999;51.660;5.616;2022-11-20T08:28:26;60.43;50.96;72.25;;
58197;Laerm;43999;51.660;5.616;2022-11-20T08:31:02;62.41;50.24;73.86;;
58197;Laerm;43999;51.660;5.616;2022-11-20T08:33:30;68.56;50.80;84.78;;
58197;Laerm;43999;51.660;5.616;2022-11-20T08:36:01;61.79;50.47;76.11;;
58197;Laerm;43999;51.660;5.616;2022-11-20T08:38:31;68.21;51.50;87.65;;
58197;Laerm;43999;51.660;5.616;2022-11-20T08:41:00;60.17;51.48;70.21;;
58197;Laerm;43999;51.660;5.616;2022-11-20T08:43:47;60.65;51.84;71.49;;
58197;Laerm;43999;51.660;5.616;2022-11-20T08:46:15;62.12;50.85;82.73;;
58197;Laerm;43999;51.660;5.616;2022-11-20T08:48:44;61.22;52.27;77.15;;
58197;Laerm;43999;51.660;5.616;2022-11-20T08:51:13;63.76;52.98;72.45;;
58197;Laerm;43999;51.660;5.616;2022-11-20T08:53:41;63.73;55.01;72.79;;
58197;Laerm;43999;51.660;5.616;2022-11-20T08:56:09;63.15;50.55;72.53;;
58197;Laerm;43999;51.660;5.616;2022-11-20T08:58:38;61.99;48.80;72.22;;
58197;Laerm;43999;51.660;5.616;2022-11-20T09:01:27;61.00;49.80;71.93;;
58197;Laerm;43999;51.660;5.616;2022-11-20T09:03:57;61.28;48.81;69.49;;
58197;Laerm;43999;51.660;5.616;2022-11-20T09:06:25;63.32;52.13;73.65;;
58197;Laerm;43999;51.660;5.616;2022-11-20T09:08:53;62.34;53.58;71.24;;
58197;Laerm;43999;51.660;5.616;2022-11-20T09:11:21;61.22;50.74;78.74;;
58197;Laerm;43999;51.660;5.616;2022-11-20T09:13:49;63.96;51.96;75.29;;
58197;Laerm;43999;51.660;5.616;2022-11-20T09:16:17;64.54;57.56;74.36;;
58197;Laerm;43999;51.660;5.616;2022-11-20T09:18:44;64.85;57.45;72.88;;
58197;Laerm;43999;51.660;5.616;2022-11-20T09:21:13;69.30;57.81;86.43;;
58197;Laerm;43999;51.660;5.616;2022-11-20T09:23:41;65.70;57.80;72.31;;
58197;Laerm;43999;51.660;5.616;2022-11-20T09:26:13;65.51;56.84;76.81;;
58197;Laerm;43999;51.660;5.616;2022-11-20T09:28:41;63.41;54.88;72.28;;
58197;Laerm;43999;51.660;5.616;2022-11-20T09:31:21;63.21;54.32;73.69;;
58197;Laerm;43999;51.660;5.616;2022-11-20T09:33:50;63.64;54.85;71.34;;
58197;Laerm;43999;51.660;5.616;2022-11-20T09:36:18;66.85;54.29;92.74;;
58197;Laerm;43999;51.660;5.616;2022-11-20T09:38:46;64.08;57.36;76.97;;
58197;Laerm;43999;51.660;5.616;2022-11-20T09:41:43;66.42;55.04;84.59;;
58197;Laerm;43999;51.660;5.616;2022-11-20T09:44:23;64.26;56.65;72.50;;
58197;Laerm;43999;51.660;5.616;2022-11-20T09:50:07;64.11;50.39;77.12;;
58197;Laerm;43999;51.660;5.616;2022-11-20T09:55:42;64.24;54.24;75.33;;
58197;Laerm;43999;51.660;5.616;2022-11-20T10:01:13;66.28;55.93;75.59;;
58197;Laerm;43999;51.660;5.616;2022-11-20T10:04:08;64.79;55.05;74.29;;
58197;Laerm;43999;51.660;5.616;2022-11-20T10:07:19;65.14;55.00;72.89;;
58197;Laerm;43999;51.660;5.616;2022-11-20T10:10:03;64.74;52.73;74.64;;
58197;Laerm;43999;51.660;5.616;2022-11-20T10:19:17;63.82;55.49;73.98;;
58197;Laerm;43999;51.660;5.616;2022-11-20T10:22:34;65.61;57.59;77.71;;
58197;Laerm;43999;51.660;5.616;2022-11-20T10:25:13;63.88;55.81;72.61;;
58197;Laerm;43999;51.660;5.616;2022-11-20T10:31:43;65.15;56.41;74.98;;
58197;Laerm;43999;51.660;5.616;2022-11-20T10:37:24;64.05;56.32;72.92;;
58197;Laerm;43999;51.660;5.616;2022-11-20T10:42:52;63.54;55.40;70.85;;
58197;Laerm;43999;51.660;5.616;2022-11-20T10:48:25;63.22;54.62;71.88;;
58197;Laerm;43999;51.660;5.616;2022-11-20T10:56:52;64.90;53.00;72.92;;
58197;Laerm;43999;51.660;5.616;2022-11-20T11:00:00;63.21;55.63;74.58;;
58197;Laerm;43999;51.660;5.616;2022-11-20T11:02:49;63.99;50.86;77.54;;
58197;Laerm;43999;51.660;5.616;2022-11-20T11:05:46;64.32;51.25;79.04;;
58197;Laerm;43999;51.660;5.616;2022-11-20T11:08:19;64.33;53.74;74.53;;
58197;Laerm;43999;51.660;5.616;2022-11-20T11:11:02;63.92;55.89;76.12;;
58197;Laerm;43999;51.660;5.616;2022-11-20T11:13:31;64.63;55.29;77.76;;
58197;Laerm;43999;51.660;5.616;2022-11-20T11:15:58;64.88;54.25;80.26;;
58197;Laerm;43999;51.660;5.616;2022-11-20T11:18:29;65.31;54.72;77.35;;
58197;Laerm;43999;51.660;5.616;2022-11-20T11:21:01;65.64;55.48;79.75;;
58197;Laerm;43999;51.660;5.616;2022-11-20T11:23:38;63.81;54.47;76.67;;
58197;Laerm;43999;51.660;5.616;2022-11-20T11:26:22;64.37;53.37;70.63;;
58197;Laerm;43999;51.660;5.616;2022-11-20T11:28:59;63.30;52.56;74.08;;
58197;Laerm;43999;51.660;5.616;2022-11-20T11:31:32;63.40;54.18;75.42;;
58197;Laerm;43999;51.660;5.616;2022-11-20T11:34:17;63.83;54.41;74.89;;
58197;Laerm;43999;51.660;5.616;2022-11-20T11:36:59;65.21;55.58;76.74;;
58197;Laerm;43999;51.660;5.616;2022-11-20T11:39:31;64.09;53.17;76.89;;
58197;Laerm;43999;51.660;5.616;2022-11-20T11:42:01;63.92;52.65;74.18;;
58197;Laerm;43999;51.660;5.616;2022-11-20T11:44:32;64.33;56.15;77.60;;
58197;Laerm;43999;51.660;5.616;2022-11-20T11:47:29;63.43;54.78;73.08;;
58197;Laerm;43999;51.660;5.616;2022-11-20T11:52:53;65.54;56.56;74.00;;
58197;Laerm;43999;51.660;5.616;2022-11-20T12:01:41;63.91;56.32;72.07;;
58197;Laerm;43999;51.660;5.616;2022-11-20T12:04:42;65.93;55.66;79.45;;
58197;Laerm;43999;51.660;5.616;2022-11-20T12:07:38;65.57;56.09;76.38;;
58197;Laerm;43999;51.660;5.616;2022-11-20T12:10:23;65.21;53.99;81.42;;
58197;Laerm;43999;51.660;5.616;2022-11-20T12:15:49;63.86;54.51;72.45;;
58197;Laerm;43999;51.660;5.616;2022-11-20T12:18:21;64.01;52.38;75.33;;
58197;Laerm;43999;51.660;5.616;2022-11-20T12:21:09;63.58;52.44;71.80;;
58197;Laerm;43999;51.660;5.616;2022-11-20T12:24:32;64.46;54.55;73.05;;
58197;Laerm;43999;51.660;5.616;2022-11-20T12:30:16;64.92;52.63;73.47;;
58197;Laerm;43999;51.660;5.616;2022-11-20T12:51:29;64.60;52.32;75.16;;
58197;Laerm;43999;51.660;5.616;2022-11-20T13:00:20;63.10;53.74;72.69;;
58197;Laerm;43999;51.660;5.616;2022-11-20T13:06:16;62.75;53.24;69.77;;
58197;Laerm;43999;51.660;5.616;2022-11-20T13:08:55;63.55;50.77;74.10;;
58197;Laerm;43999;51.660;5.616;2022-11-20T13:17:24;62.73;50.28;79.42;;
58197;Laerm;43999;51.660;5.616;2022-11-20T13:19:57;63.97;51.64;76.81;;
58197;Laerm;43999;51.660;5.616;2022-11-20T13:22:51;66.53;51.16;81.07;;
58197;Laerm;43999;51.660;5.616;2022-11-20T13:25:29;63.89;52.13;74.51;;
58197;Laerm;43999;51.660;5.616;2022-11-20T13:28:04;67.96;51.49;88.61;;
58197;Laerm;43999;51.660;5.616;2022-11-20T13:30:33;62.97;50.49;73.96;;
58197;Laerm;43999;51.660;5.616;2022-11-20T13:33:30;65.03;47.86;95.49;;
58197;Laerm;43999;51.660;5.616;2022-11-20T13:36:23;64.24;53.26;76.75;;
58197;Laerm;43999;51.660;5.616;2022-11-20T13:38:54;63.95;52.60;72.49;;
58197;Laerm;43999;51.660;5.616;2022-11-20T13:41:38;62.08;52.98;74.17;;
58197;Laerm;43999;51.660;5.616;2022-11-20T13:44:23;64.10;54.53;72.79;;
58197;Laerm;43999;51.660;5.616;2022-11-20T13:46:52;64.00;54.29;74.40;;
58197;Laerm;43999;51.660;5.616;2022-11-20T13:49:40;63.82;55.29;76.26;;
58197;Laerm;43999;51.660;5.616;2022-11-20T14:01:54;63.62;52.51;74.74;;
58197;Laerm;43999;51.660;5.616;2022-11-20T14:04:36;63.40;52.04;77.76;;
58197;Laerm;43999;51.660;5.616;2022-11-20T14:07:06;64.67;51.17;77.35;;
58197;Laerm;43999;51.660;5.616;2022-11-20T14:09:34;63.47;55.38;72.33;;
58197;Laerm;43999;51.660;5.616;2022-11-20T14:12:12;64.58;55.91;74.13;;
58197;Laerm;43999;51.660;5.616;2022-11-20T14:14:52;62.32;51.33;76.68;;
58197;Laerm;43999;51.660;5.616;2022-11-20T14:17:24;61.42;51.39;84.26;;
58197;Laerm;43999;51.660;5.616;2022-11-20T14:19:54;62.13;50.74;71.28;;
58197;Laerm;43999;51.660;5.616;2022-11-20T14:22:26;64.40;56.60;75.78;;
58197;Laerm;43999;51.660;5.616;2022-11-20T14:25:25;64.29;50.03;85.26;;
58197;Laerm;43999;51.660;5.616;2022-11-20T14:28:01;63.30;51.96;72.00;;
58197;Laerm;43999;51.660;5.616;2022-11-20T14:30:45;66.34;51.36;80.94;;
58197;Laerm;43999;51.660;5.616;2022-11-20T14:33:15;63.06;51.40;71.96;;
58197;Laerm;43999;51.660;5.616;2022-11-20T14:35:55;64.31;52.26;74.33;;
58197;Laerm;43999;51.660;5.616;2022-11-20T14:38:31;64.53;54.70;77.01;;
58197;Laerm;43999;51.660;5.616;2022-11-20T14:41:20;63.54;53.22;72.67;;
58197;Laerm;43999;51.660;5.616;2022-11-20T14:44:00;64.26;51.11;73.67;;
58197;Laerm;43999;51.660;5.616;2022-11-20T14:46:31;64.80;54.18;73.23;;
58197;Laerm;43999;51.660;5.616;2022-11-20T14:49:02;65.35;52.20;73.92;;
58197;Laerm;43999;51.660;5.616;2022-11-20T14:51:35;69.56;58.43;83.05;;
58197;Laerm;43999;51.660;5.616;2022-11-20T14:54:20;67.09;58.79;73.08;;
58197;Laerm;43999;51.660;5.616;2022-11-20T14:56:59;68.84;61.35;75.12;;
58197;Laerm;43999;51.660;5.616;2022-11-20T14:59:34;70.75;62.91;78.06;;
58197;Laerm;43999;51.660;5.616;2022-11-20T15:02:12;72.19;64.65;82.30;;
58197;Laerm;43999;51.660;5.616;2022-11-20T15:04:57;72.90;64.02;81.82;;
58197;Laerm;43999;51.660;5.616;2022-11-20T15:07:34;72.43;63.78;82.35;;
58197;Laerm;43999;51.660;5.616;2022-11-20T15:10:19;74.14;67.10;84.53;;
58197;Laerm;43999;51.660;5.616;2022-11-20T15:12:55;73.46;64.45;81.63;;
58197;Laerm;43999;51.660;5.616;2022-11-20T15:15:48;73.24;64.75;82.79;;
58197;Laerm;43999;51.660;5.616;2022-11-20T15:18:37;71.76;62.95;80.88;;
58197;Laerm;43999;51.660;5.616;2022-11-20T15:21:16;72.12;60.56;82.19;;
58197;Laerm;43999;51.660;5.616;2022-11-20T15:23:44;71.83;62.47;85.11;;
58197;Laerm;43999;51.660;5.616;2022-11-20T15:26:18;72.38;61.81;81.96;;
58197;Laerm;43999;51.660;5.616;2022-11-20T15:28:48;71.79;62.04;82.91;;
58197;Laerm;43999;51.660;5.616;2022-11-20T15:31:22;72.18;62.39;82.45;;
58197;Laerm;43999;51.660;5.616;2022-11-20T15:33:50;72.15;62.85;80.31;;
58197;Laerm;43999;51.660;5.616;2022-11-20T15:36:17;71.96;58.96;82.24;;
58197;Laerm;43999;51.660;5.616;2022-11-20T15:38:44;70.48;59.34;79.82;;
58197;Laerm;43999;51.660;5.616;2022-11-20T15:41:12;70.92;58.64;82.55;;
58197;Laerm;43999;51.660;5.616;2022-11-20T15:43:39;70.69;60.27;80.80;;
58197;Laerm;43999;51.660;5.616;2022-11-20T15:46:16;70.26;58.98;87.58;;
58197;Laerm;43999;51.660;5.616;2022-11-20T15:48:54;71.17;56.94;88.48;;
58197;Laerm;43999;51.660;5.616;2022-11-20T15:51:30;69.22;59.18;80.49;;
58197;Laerm;43999;51.660;5.616;2022-11-20T15:53:58;69.27;57.03;80.46;;
58197;Laerm;43999;51.660;5.616;2022-11-20T15:56:26;69.01;54.70;77.24;;
58197;Laerm;43999;51.660;5.616;2022-11-20T15:58:53;69.75;59.05;83.36;;